Sunday, May 24, 2015, 1:05 PM EDT

KGED, Georgetown Sussex Co Airport

Location: Georgetown, DE, United States Lat: 38.683
Local Time: 1:05 PM EDT (17:05 GMT) Lon: -75.367
Time Zone: US/Eastern Elev: 52 ft

Show me the last for .
Show Decoded

2015-05-24 12:54 METAR KGED 241654Z AUTO 22010KT 10SM CLR 24/11 A3036 RMK AO2 SLP281 T02440111 =
2015-05-24 11:54 METAR KGED 241554Z AUTO 20011KT 10SM CLR 23/11 A3039 RMK AO2 SLP289 T02330106 =
2015-05-24 08:54 METAR KGED 241254Z AUTO 22008KT 10SM SCT070 18/09 A3043 RMK AO2 SLP305 T01780094
                 =
2015-05-24 07:54 METAR KGED 241154Z AUTO 20008KT 10SM CLR 15/11 A3042 RMK AO2 SLP300 T01500111
                 10150 20078 51006 =
2015-05-24 06:54 METAR KGED 241054Z AUTO 21005KT 10SM CLR 11/09 A3042 RMK AO2 SLP300 T01110094 =
2015-05-24 04:54 METAR KGED 240854Z AUTO 00000KT 10SM CLR 09/08 A3040 RMK AO2 SLP294 T00890078
                 56001 =
2015-05-24 03:54 METAR KGED 240754Z AUTO 00000KT 10SM CLR 09/07 A3040 RMK AO2 SLP294 T00890072 =
2015-05-24 02:54 METAR KGED 240654Z AUTO 00000KT 10SM CLR 08/07 A3040 RMK AO2 SLP295 T00780067 =
2015-05-24 01:54 METAR KGED 240554Z AUTO 00000KT 10SM CLR 08/07 A3041 RMK AO2 SLP295 T00830072
                 10150 20083 58005 =
2015-05-24 00:54 METAR KGED 240454Z AUTO 00000KT 10SM CLR 10/08 A3041 RMK AO2 SLP298 T01000083
                 402110094 =
2015-05-23 23:54 METAR KGED 240354Z AUTO 21004KT 10SM CLR 11/08 A3042 RMK AO2 SLP299 T01110083 =
2015-05-23 22:54 METAR KGED 240254Z AUTO 20004KT 10SM CLR 11/08 A3042 RMK AO2 SLP300 T01110083
                 52008 =
2015-05-23 21:54 METAR KGED 240154Z AUTO 18005KT 10SM CLR 12/08 A3041 RMK AO2 SLP297 T01220083 =
2015-05-23 20:54 METAR KGED 240054Z AUTO 17009KT 10SM CLR 13/08 A3040 RMK AO2 SLP295 T01330078 =
2015-05-23 19:54 METAR KGED 232354Z AUTO 15006KT 10SM CLR 15/08 A3040 RMK AO2 SLP292 T01500083
                 10211 20150 55001 =
2015-05-23 18:54 METAR KGED 232254Z AUTO 15009KT 10SM CLR 18/08 A3039 RMK AO2 SLP291 T01780078 =
2015-05-23 17:54 METAR KGED 232154Z AUTO 29004KT 10SM CLR 21/M01 A3040 RMK AO2 SLP292 T02061011 =
2015-05-23 16:54 METAR KGED 232054Z AUTO 27007KT 10SM CLR 21/M01 A3040 RMK AO2 SLP293 T02061006
                 56011 =
2015-05-23 15:54 METAR KGED 231954Z AUTO VRB06KT 10SM CLR 21/M01 A3040 RMK AO2 SLP294 T02061006 =
2015-05-23 14:54 METAR KGED 231854Z AUTO VRB03KT 10SM CLR 20/M01 A3042 RMK AO2 SLP301 T02001006 =
2015-05-23 13:54 METAR KGED 231754Z AUTO 25007KT 210V280 10SM CLR 19/M01 A3043 RMK AO2 SLP303
                 T01891011 10194 20133 58010 =

Support USWX by starting your Amazon purchase here.